sensor_id;sensor_type;location;lat;lon;timestamp;P1;durP1;ratioP1;P2;durP2;ratioP2
4414;SDS011;2220;42.670;23.398;2022-12-18T00:01:02;3.05;;;2.03;;
4414;SDS011;2220;42.670;23.398;2022-12-18T00:03:33;8.20;;;5.82;;
4414;SDS011;2220;42.670;23.398;2022-12-18T00:05:59;7.78;;;5.40;;
4414;SDS011;2220;42.670;23.398;2022-12-18T00:08:24;4.55;;;3.85;;
4414;SDS011;2220;42.670;23.398;2022-12-18T00:10:50;8.57;;;5.13;;
4414;SDS011;2220;42.670;23.398;2022-12-18T00:13:15;7.88;;;5.82;;
4414;SDS011;2220;42.670;23.398;2022-12-18T00:15:41;6.00;;;4.43;;
4414;SDS011;2220;42.670;23.398;2022-12-18T00:18:06;7.00;;;4.80;;
4414;SDS011;2220;42.670;23.398;2022-12-18T00:20:35;7.07;;;5.45;;
4414;SDS011;2220;42.670;23.398;2022-12-18T00:23:04;6.57;;;4.57;;
4414;SDS011;2220;42.670;23.398;2022-12-18T00:25:32;4.80;;;3.40;;
4414;SDS011;2220;42.670;23.398;2022-12-18T00:27:59;6.45;;;4.72;;
4414;SDS011;2220;42.670;23.398;2022-12-18T00:30:25;4.30;;;2.72;;
4414;SDS011;2220;42.670;23.398;2022-12-18T00:32:50;8.70;;;6.22;;
4414;SDS011;2220;42.670;23.398;2022-12-18T00:35:16;9.40;;;5.50;;
4414;SDS011;2220;42.670;23.398;2022-12-18T00:37:41;9.57;;;6.85;;
4414;SDS011;2220;42.670;23.398;2022-12-18T00:40:07;8.48;;;6.60;;
4414;SDS011;2220;42.670;23.398;2022-12-18T00:42:33;7.32;;;5.53;;
4414;SDS011;2220;42.670;23.398;2022-12-18T00:45:16;6.15;;;3.75;;
4414;SDS011;2220;42.670;23.398;2022-12-18T00:47:42;9.02;;;6.00;;
4414;SDS011;2220;42.670;23.398;2022-12-18T00:50:07;6.65;;;4.75;;
4414;SDS011;2220;42.670;23.398;2022-12-18T00:52:34;6.63;;;4.20;;
4414;SDS011;2220;42.670;23.398;2022-12-18T00:54:59;9.02;;;5.88;;
4414;SDS011;2220;42.670;23.398;2022-12-18T00:57:24;7.72;;;5.15;;
4414;SDS011;2220;42.670;23.398;2022-12-18T00:59:50;6.78;;;5.22;;
4414;SDS011;2220;42.670;23.398;2022-12-18T01:02:15;9.50;;;6.40;;
4414;SDS011;2220;42.670;23.398;2022-12-18T01:04:41;6.75;;;4.15;;
4414;SDS011;2220;42.670;23.398;2022-12-18T01:07:06;6.35;;;4.25;;
4414;SDS011;2220;42.670;23.398;2022-12-18T01:09:31;8.57;;;6.55;;
4414;SDS011;2220;42.670;23.398;2022-12-18T01:11:57;8.57;;;5.78;;
4414;SDS011;2220;42.670;23.398;2022-12-18T01:14:22;8.27;;;5.85;;
4414;SDS011;2220;42.670;23.398;2022-12-18T01:16:48;7.88;;;5.72;;
4414;SDS011;2220;42.670;23.398;2022-12-18T01:19:13;8.20;;;6.40;;
4414;SDS011;2220;42.670;23.398;2022-12-18T01:21:38;9.65;;;6.47;;
4414;SDS011;2220;42.670;23.398;2022-12-18T01:24:04;9.30;;;6.35;;
4414;SDS011;2220;42.670;23.398;2022-12-18T01:26:30;9.15;;;6.10;;
4414;SDS011;2220;42.670;23.398;2022-12-18T01:28:55;6.43;;;4.85;;
4414;SDS011;2220;42.670;23.398;2022-12-18T01:31:25;7.82;;;6.30;;
4414;SDS011;2220;42.670;23.398;2022-12-18T01:33:53;9.30;;;6.18;;
4414;SDS011;2220;42.670;23.398;2022-12-18T01:36:21;5.97;;;4.43;;
4414;SDS011;2220;42.670;23.398;2022-12-18T01:38:49;8.45;;;6.32;;
4414;SDS011;2220;42.670;23.398;2022-12-18T01:41:17;11.75;;;4.18;;
4414;SDS011;2220;42.670;23.398;2022-12-18T01:43:49;9.70;;;5.43;;
4414;SDS011;2220;42.670;23.398;2022-12-18T01:46:19;8.18;;;5.70;;
4414;SDS011;2220;42.670;23.398;2022-12-18T01:48:48;10.00;;;6.25;;
4414;SDS011;2220;42.670;23.398;2022-12-18T01:51:15;9.30;;;5.40;;
4414;SDS011;2220;42.670;23.398;2022-12-18T01:53:41;10.82;;;7.40;;
4414;SDS011;2220;42.670;23.398;2022-12-18T01:56:11;8.85;;;7.10;;
4414;SDS011;2220;42.670;23.398;2022-12-18T01:58:48;9.02;;;5.68;;
4414;SDS011;2220;42.670;23.398;2022-12-18T02:01:26;6.22;;;5.18;;
4414;SDS011;2220;42.670;23.398;2022-12-18T02:03:52;7.13;;;5.22;;
4414;SDS011;2220;42.670;23.398;2022-12-18T02:08:59;9.02;;;5.57;;
4414;SDS011;2220;42.670;23.398;2022-12-18T02:16:50;6.65;;;5.28;;
4414;SDS011;2220;42.670;23.398;2022-12-18T02:24:36;5.65;;;4.07;;
4414;SDS011;2220;42.670;23.398;2022-12-18T02:27:16;5.28;;;3.72;;
4414;SDS011;2220;42.670;23.398;2022-12-18T02:29:53;4.78;;;3.22;;
4414;SDS011;2220;42.670;23.398;2022-12-18T02:32:26;6.72;;;5.38;;
4414;SDS011;2220;42.670;23.398;2022-12-18T02:34:58;8.23;;;5.70;;
4414;SDS011;2220;42.670;23.398;2022-12-18T02:37:26;12.10;;;5.60;;
4414;SDS011;2220;42.670;23.398;2022-12-18T02:39:53;9.48;;;6.47;;
4414;SDS011;2220;42.670;23.398;2022-12-18T02:42:22;5.13;;;3.50;;
4414;SDS011;2220;42.670;23.398;2022-12-18T02:44:48;3.60;;;3.03;;
4414;SDS011;2220;42.670;23.398;2022-12-18T02:47:17;5.25;;;3.70;;
4414;SDS011;2220;42.670;23.398;2022-12-18T02:55:08;9.43;;;5.45;;
4414;SDS011;2220;42.670;23.398;2022-12-18T02:57:44;7.57;;;6.07;;
4414;SDS011;2220;42.670;23.398;2022-12-18T03:02:45;6.07;;;4.40;;
4414;SDS011;2220;42.670;23.398;2022-12-18T03:05:22;6.75;;;4.82;;
4414;SDS011;2220;42.670;23.398;2022-12-18T03:07:59;5.57;;;4.20;;
4414;SDS011;2220;42.670;23.398;2022-12-18T03:10:29;7.88;;;4.47;;
4414;SDS011;2220;42.670;23.398;2022-12-18T03:13:03;11.07;;;5.65;;
4414;SDS011;2220;42.670;23.398;2022-12-18T03:15:37;7.18;;;4.75;;
4414;SDS011;2220;42.670;23.398;2022-12-18T03:18:16;5.90;;;4.30;;
4414;SDS011;2220;42.670;23.398;2022-12-18T03:20:45;4.32;;;2.95;;
4414;SDS011;2220;42.670;23.398;2022-12-18T03:23:17;4.72;;;3.55;;
4414;SDS011;2220;42.670;23.398;2022-12-18T03:25:45;6.38;;;4.97;;
4414;SDS011;2220;42.670;23.398;2022-12-18T03:28:13;4.03;;;3.03;;
4414;SDS011;2220;42.670;23.398;2022-12-18T03:30:42;6.10;;;4.03;;
4414;SDS011;2220;42.670;23.398;2022-12-18T03:33:12;5.68;;;3.55;;
4414;SDS011;2220;42.670;23.398;2022-12-18T03:35:44;10.00;;;4.50;;
4414;SDS011;2220;42.670;23.398;2022-12-18T03:38:10;6.47;;;3.75;;
4414;SDS011;2220;42.670;23.398;2022-12-18T03:43:16;4.45;;;3.85;;
4414;SDS011;2220;42.670;23.398;2022-12-18T03:45:51;9.05;;;6.50;;
4414;SDS011;2220;42.670;23.398;2022-12-18T03:51:42;6.10;;;4.60;;
4414;SDS011;2220;42.670;23.398;2022-12-18T03:54:15;3.70;;;2.90;;
4414;SDS011;2220;42.670;23.398;2022-12-18T03:56:44;8.95;;;5.75;;
4414;SDS011;2220;42.670;23.398;2022-12-18T03:59:13;8.70;;;5.80;;
4414;SDS011;2220;42.670;23.398;2022-12-18T04:01:42;4.97;;;3.03;;
4414;SDS011;2220;42.670;23.398;2022-12-18T04:04:12;9.65;;;6.18;;
4414;SDS011;2220;42.670;23.398;2022-12-18T04:06:41;12.32;;;7.18;;
4414;SDS011;2220;42.670;23.398;2022-12-18T04:09:09;10.35;;;5.90;;
4414;SDS011;2220;42.670;23.398;2022-12-18T04:11:34;8.70;;;5.45;;
4414;SDS011;2220;42.670;23.398;2022-12-18T04:14:00;11.80;;;6.57;;
4414;SDS011;2220;42.670;23.398;2022-12-18T04:16:26;9.82;;;6.15;;
4414;SDS011;2220;42.670;23.398;2022-12-18T04:18:52;9.57;;;6.07;;
4414;SDS011;2220;42.670;23.398;2022-12-18T04:21:17;8.25;;;5.05;;
4414;SDS011;2220;42.670;23.398;2022-12-18T04:23:43;8.52;;;5.75;;
4414;SDS011;2220;42.670;23.398;2022-12-18T04:26:08;12.63;;;7.25;;
4414;SDS011;2220;42.670;23.398;2022-12-18T04:28:34;10.63;;;6.75;;
4414;SDS011;2220;42.670;23.398;2022-12-18T04:30:59;10.73;;;7.20;;
4414;SDS011;2220;42.670;23.398;2022-12-18T04:33:24;13.07;;;7.45;;
4414;SDS011;2220;42.670;23.398;2022-12-18T04:35:50;9.98;;;6.32;;
4414;SDS011;2220;42.670;23.398;2022-12-18T04:38:15;11.05;;;7.45;;
4414;SDS011;2220;42.670;23.398;2022-12-18T04:40:41;5.28;;;3.70;;
4414;SDS011;2220;42.670;23.398;2022-12-18T04:43:07;9.68;;;6.70;;
4414;SDS011;2220;42.670;23.398;2022-12-18T04:45:32;9.07;;;6.20;;
4414;SDS011;2220;42.670;23.398;2022-12-18T04:47:58;12.10;;;5.95;;
4414;SDS011;2220;42.670;23.398;2022-12-18T04:50:25;10.00;;;5.85;;
4414;SDS011;2220;42.670;23.398;2022-12-18T04:52:51;8.68;;;5.78;;
4414;SDS011;2220;42.670;23.398;2022-12-18T04:55:16;10.13;;;4.65;;
4414;SDS011;2220;42.670;23.398;2022-12-18T04:57:42;14.98;;;8.63;;
4414;SDS011;2220;42.670;23.398;2022-12-18T05:00:07;10.65;;;5.20;;
4414;SDS011;2220;42.670;23.398;2022-12-18T05:02:33;11.95;;;6.47;;
4414;SDS011;2220;42.670;23.398;2022-12-18T05:04:59;8.25;;;4.57;;
4414;SDS011;2220;42.670;23.398;2022-12-18T05:07:24;12.27;;;5.63;;
4414;SDS011;2220;42.670;23.398;2022-12-18T05:09:50;10.52;;;5.85;;
4414;SDS011;2220;42.670;23.398;2022-12-18T05:12:15;14.48;;;7.28;;
4414;SDS011;2220;42.670;23.398;2022-12-18T05:14:41;16.15;;;8.93;;
4414;SDS011;2220;42.670;23.398;2022-12-18T05:17:06;13.10;;;7.18;;
4414;SDS011;2220;42.670;23.398;2022-12-18T05:19:32;12.55;;;5.35;;
4414;SDS011;2220;42.670;23.398;2022-12-18T05:21:57;14.82;;;7.90;;
4414;SDS011;2220;42.670;23.398;2022-12-18T05:24:23;10.55;;;5.63;;
4414;SDS011;2220;42.670;23.398;2022-12-18T05:26:48;14.10;;;8.57;;
4414;SDS011;2220;42.670;23.398;2022-12-18T05:29:14;14.38;;;8.25;;
4414;SDS011;2220;42.670;23.398;2022-12-18T05:31:39;15.63;;;8.90;;
4414;SDS011;2220;42.670;23.398;2022-12-18T05:34:05;15.73;;;8.07;;
4414;SDS011;2220;42.670;23.398;2022-12-18T05:36:30;13.50;;;8.23;;
4414;SDS011;2220;42.670;23.398;2022-12-18T05:38:56;9.07;;;5.00;;
4414;SDS011;2220;42.670;23.398;2022-12-18T05:41:22;12.40;;;7.32;;
4414;SDS011;2220;42.670;23.398;2022-12-18T05:43:47;17.23;;;8.43;;
4414;SDS011;2220;42.670;23.398;2022-12-18T05:46:14;14.27;;;8.15;;
4414;SDS011;2220;42.670;23.398;2022-12-18T05:48:42;15.98;;;7.97;;
4414;SDS011;2220;42.670;23.398;2022-12-18T05:51:16;16.85;;;10.23;;
4414;SDS011;2220;42.670;23.398;2022-12-18T05:53:43;20.05;;;8.20;;
4414;SDS011;2220;42.670;23.398;2022-12-18T05:56:11;22.63;;;10.45;;
4414;SDS011;2220;42.670;23.398;2022-12-18T05:58:41;23.02;;;12.05;;
4414;SDS011;2220;42.670;23.398;2022-12-18T06:01:17;16.13;;;8.45;;
4414;SDS011;2220;42.670;23.398;2022-12-18T06:03:44;19.70;;;9.00;;
4414;SDS011;2220;42.670;23.398;2022-12-18T06:06:13;20.25;;;10.63;;
4414;SDS011;2220;42.670;23.398;2022-12-18T06:08:43;19.95;;;9.70;;
4414;SDS011;2220;42.670;23.398;2022-12-18T06:11:09;16.65;;;9.07;;
4414;SDS011;2220;42.670;23.398;2022-12-18T06:13:35;18.20;;;9.77;;
4414;SDS011;2220;42.670;23.398;2022-12-18T06:16:02;16.08;;;8.55;;
4414;SDS011;2220;42.670;23.398;2022-12-18T06:18:29;16.70;;;9.07;;
4414;SDS011;2220;42.670;23.398;2022-12-18T06:20:57;16.08;;;8.90;;
4414;SDS011;2220;42.670;23.398;2022-12-18T06:23:24;22.02;;;12.00;;
4414;SDS011;2220;42.670;23.398;2022-12-18T06:25:50;13.60;;;6.82;;
4414;SDS011;2220;42.670;23.398;2022-12-18T06:28:16;22.73;;;11.75;;
4414;SDS011;2220;42.670;23.398;2022-12-18T06:30:44;12.48;;;7.80;;
4414;SDS011;2220;42.670;23.398;2022-12-18T06:33:14;18.80;;;10.38;;
4414;SDS011;2220;42.670;23.398;2022-12-18T06:35:40;14.27;;;8.57;;
4414;SDS011;2220;42.670;23.398;2022-12-18T06:38:06;15.05;;;8.00;;
4414;SDS011;2220;42.670;23.398;2022-12-18T06:40:35;12.55;;;7.63;;
4414;SDS011;2220;42.670;23.398;2022-12-18T06:43:02;18.48;;;9.95;;
4414;SDS011;2220;42.670;23.398;2022-12-18T06:45:27;31.30;;;11.25;;
4414;SDS011;2220;42.670;23.398;2022-12-18T06:47:53;14.75;;;8.48;;
4414;SDS011;2220;42.670;23.398;2022-12-18T06:50:18;15.10;;;7.55;;
4414;SDS011;2220;42.670;23.398;2022-12-18T06:52:44;18.75;;;8.77;;
4414;SDS011;2220;42.670;23.398;2022-12-18T06:55:09;21.88;;;9.60;;
4414;SDS011;2220;42.670;23.398;2022-12-18T06:57:36;19.50;;;9.77;;
4414;SDS011;2220;42.670;23.398;2022-12-18T07:00:03;20.33;;;10.13;;
4414;SDS011;2220;42.670;23.398;2022-12-18T07:02:30;18.73;;;7.70;;
4414;SDS011;2220;42.670;23.398;2022-12-18T07:04:55;23.00;;;8.73;;
4414;SDS011;2220;42.670;23.398;2022-12-18T07:07:20;66.47;;;27.40;;
4414;SDS011;2220;42.670;23.398;2022-12-18T07:09:46;13.77;;;7.32;;
4414;SDS011;2220;42.670;23.398;2022-12-18T07:12:11;16.23;;;7.75;;
4414;SDS011;2220;42.670;23.398;2022-12-18T07:14:37;24.38;;;10.55;;
4414;SDS011;2220;42.670;23.398;2022-12-18T07:17:08;17.35;;;7.45;;
4414;SDS011;2220;42.670;23.398;2022-12-18T07:19:40;17.52;;;9.70;;
4414;SDS011;2220;42.670;23.398;2022-12-18T07:22:05;15.18;;;8.57;;
4414;SDS011;2220;42.670;23.398;2022-12-18T07:24:32;17.95;;;9.15;;
4414;SDS011;2220;42.670;23.398;2022-12-18T07:26:58;11.65;;;7.70;;
4414;SDS011;2220;42.670;23.398;2022-12-18T07:29:24;22.95;;;11.18;;
4414;SDS011;2220;42.670;23.398;2022-12-18T07:31:49;25.80;;;11.63;;
4414;SDS011;2220;42.670;23.398;2022-12-18T07:34:15;18.42;;;9.48;;
4414;SDS011;2220;42.670;23.398;2022-12-18T07:36:40;21.15;;;10.85;;
4414;SDS011;2220;42.670;23.398;2022-12-18T07:39:06;18.48;;;10.07;;
4414;SDS011;2220;42.670;23.398;2022-12-18T07:41:32;18.35;;;9.75;;
4414;SDS011;2220;42.670;23.398;2022-12-18T07:44:00;23.92;;;11.85;;
4414;SDS011;2220;42.670;23.398;2022-12-18T07:46:25;17.13;;;9.60;;
4414;SDS011;2220;42.670;23.398;2022-12-18T07:48:51;25.20;;;11.18;;
4414;SDS011;2220;42.670;23.398;2022-12-18T07:51:17;23.80;;;12.57;;
4414;SDS011;2220;42.670;23.398;2022-12-18T07:53:43;22.58;;;9.73;;
4414;SDS011;2220;42.670;23.398;2022-12-18T07:56:09;18.25;;;8.88;;
4414;SDS011;2220;42.670;23.398;2022-12-18T07:58:36;28.42;;;15.30;;
4414;SDS011;2220;42.670;23.398;2022-12-18T08:01:06;23.00;;;11.63;;
4414;SDS011;2220;42.670;23.398;2022-12-18T08:03:33;26.55;;;12.77;;
4414;SDS011;2220;42.670;23.398;2022-12-18T08:06:02;24.23;;;13.63;;
4414;SDS011;2220;42.670;23.398;2022-12-18T08:08:29;18.58;;;10.43;;
4414;SDS011;2220;42.670;23.398;2022-12-18T08:10:55;21.70;;;10.48;;
4414;SDS011;2220;42.670;23.398;2022-12-18T08:13:21;31.35;;;16.38;;
4414;SDS011;2220;42.670;23.398;2022-12-18T08:15:55;33.65;;;12.63;;
4414;SDS011;2220;42.670;23.398;2022-12-18T08:18:21;18.13;;;7.80;;
4414;SDS011;2220;42.670;23.398;2022-12-18T08:20:46;26.17;;;11.57;;
4414;SDS011;2220;42.670;23.398;2022-12-18T08:23:11;23.08;;;11.63;;
4414;SDS011;2220;42.670;23.398;2022-12-18T08:25:37;17.00;;;9.30;;
4414;SDS011;2220;42.670;23.398;2022-12-18T08:28:02;27.98;;;12.05;;
4414;SDS011;2220;42.670;23.398;2022-12-18T08:30:28;25.85;;;12.57;;
4414;SDS011;2220;42.670;23.398;2022-12-18T08:32:53;31.77;;;15.93;;
4414;SDS011;2220;42.670;23.398;2022-12-18T08:35:19;18.60;;;8.80;;
4414;SDS011;2220;42.670;23.398;2022-12-18T08:37:44;27.10;;;12.85;;
4414;SDS011;2220;42.670;23.398;2022-12-18T08:40:30;17.08;;;8.68;;
4414;SDS011;2220;42.670;23.398;2022-12-18T08:42:55;13.57;;;7.07;;
4414;SDS011;2220;42.670;23.398;2022-12-18T08:45:39;21.70;;;9.55;;
4414;SDS011;2220;42.670;23.398;2022-12-18T08:48:05;18.23;;;9.35;;
4414;SDS011;2220;42.670;23.398;2022-12-18T08:50:30;19.50;;;10.70;;
4414;SDS011;2220;42.670;23.398;2022-12-18T08:52:56;24.80;;;8.82;;
4414;SDS011;2220;42.670;23.398;2022-12-18T08:55:21;21.80;;;10.45;;
4414;SDS011;2220;42.670;23.398;2022-12-18T08:57:49;21.85;;;9.23;;
4414;SDS011;2220;42.670;23.398;2022-12-18T09:00:15;18.30;;;10.23;;
4414;SDS011;2220;42.670;23.398;2022-12-18T09:02:40;22.52;;;10.95;;
4414;SDS011;2220;42.670;23.398;2022-12-18T09:05:11;26.10;;;12.68;;
4414;SDS011;2220;42.670;23.398;2022-12-18T09:07:37;18.35;;;9.45;;
4414;SDS011;2220;42.670;23.398;2022-12-18T09:10:02;26.52;;;12.63;;
4414;SDS011;2220;42.670;23.398;2022-12-18T09:12:28;19.42;;;9.93;;
4414;SDS011;2220;42.670;23.398;2022-12-18T09:14:54;24.58;;;11.85;;
4414;SDS011;2220;42.670;23.398;2022-12-18T09:17:19;26.00;;;13.35;;
4414;SDS011;2220;42.670;23.398;2022-12-18T09:19:45;26.63;;;13.00;;
4414;SDS011;2220;42.670;23.398;2022-12-18T09:22:10;23.33;;;10.27;;
4414;SDS011;2220;42.670;23.398;2022-12-18T09:24:36;30.88;;;13.70;;
4414;SDS011;2220;42.670;23.398;2022-12-18T09:27:01;20.80;;;8.82;;
4414;SDS011;2220;42.670;23.398;2022-12-18T09:29:27;28.88;;;13.93;;
4414;SDS011;2220;42.670;23.398;2022-12-18T09:31:52;18.75;;;9.30;;
4414;SDS011;2220;42.670;23.398;2022-12-18T09:34:21;16.40;;;8.93;;
4414;SDS011;2220;42.670;23.398;2022-12-18T09:36:46;25.25;;;11.18;;
4414;SDS011;2220;42.670;23.398;2022-12-18T09:39:12;31.65;;;14.85;;
4414;SDS011;2220;42.670;23.398;2022-12-18T09:41:58;26.25;;;13.02;;
4414;SDS011;2220;42.670;23.398;2022-12-18T09:44:25;20.77;;;9.97;;
4414;SDS011;2220;42.670;23.398;2022-12-18T09:49:59;24.45;;;11.07;;
4414;SDS011;2220;42.670;23.398;2022-12-18T09:52:33;27.15;;;12.10;;
4414;SDS011;2220;42.670;23.398;2022-12-18T09:57:45;20.63;;;9.20;;
4414;SDS011;2220;42.670;23.398;2022-12-18T10:00:34;23.77;;;11.32;;
4414;SDS011;2220;42.670;23.398;2022-12-18T10:03:08;31.25;;;11.63;;
4414;SDS011;2220;42.670;23.398;2022-12-18T10:05:44;22.98;;;11.20;;
4414;SDS011;2220;42.670;23.398;2022-12-18T10:08:42;19.50;;;9.68;;
4414;SDS011;2220;42.670;23.398;2022-12-18T10:16:51;24.42;;;8.20;;
4414;SDS011;2220;42.670;23.398;2022-12-18T10:27:46;26.55;;;13.40;;
4414;SDS011;2220;42.670;23.398;2022-12-18T10:30:13;25.88;;;10.15;;
4414;SDS011;2220;42.670;23.398;2022-12-18T10:32:40;24.50;;;11.07;;
4414;SDS011;2220;42.670;23.398;2022-12-18T10:35:16;22.63;;;12.05;;
4414;SDS011;2220;42.670;23.398;2022-12-18T10:43:35;20.75;;;10.32;;
4414;SDS011;2220;42.670;23.398;2022-12-18T10:48:35;21.45;;;9.98;;
4414;SDS011;2220;42.670;23.398;2022-12-18T10:51:07;17.83;;;9.00;;
4414;SDS011;2220;42.670;23.398;2022-12-18T10:53:33;23.02;;;10.85;;
4414;SDS011;2220;42.670;23.398;2022-12-18T10:56:03;23.58;;;11.05;;
4414;SDS011;2220;42.670;23.398;2022-12-18T10:58:31;20.50;;;8.18;;
4414;SDS011;2220;42.670;23.398;2022-12-18T11:06:23;31.50;;;14.75;;
4414;SDS011;2220;42.670;23.398;2022-12-18T11:11:29;26.45;;;13.52;;
4414;SDS011;2220;42.670;23.398;2022-12-18T11:14:01;21.38;;;9.90;;
4414;SDS011;2220;42.670;23.398;2022-12-18T11:16:30;21.45;;;9.55;;
4414;SDS011;2220;42.670;23.398;2022-12-18T11:19:13;29.40;;;14.52;;
4414;SDS011;2220;42.670;23.398;2022-12-18T11:21:49;28.45;;;13.73;;
4414;SDS011;2220;42.670;23.398;2022-12-18T11:24:19;26.30;;;12.30;;
4414;SDS011;2220;42.670;23.398;2022-12-18T11:29:18;21.27;;;9.85;;
4414;SDS011;2220;42.670;23.398;2022-12-18T11:31:51;19.95;;;10.27;;
4414;SDS011;2220;42.670;23.398;2022-12-18T11:34:39;23.63;;;12.65;;
4414;SDS011;2220;42.670;23.398;2022-12-18T11:37:18;29.88;;;15.23;;
4414;SDS011;2220;42.670;23.398;2022-12-18T11:39:55;19.17;;;10.43;;
4414;SDS011;2220;42.670;23.398;2022-12-18T11:42:35;31.92;;;14.00;;
4414;SDS011;2220;42.670;23.398;2022-12-18T11:47:57;31.33;;;14.20;;
4414;SDS011;2220;42.670;23.398;2022-12-18T11:50:38;22.35;;;12.35;;
4414;SDS011;2220;42.670;23.398;2022-12-18T11:53:10;36.13;;;15.60;;
4414;SDS011;2220;42.670;23.398;2022-12-18T11:55:41;27.77;;;11.65;;
4414;SDS011;2220;42.670;23.398;2022-12-18T12:01:10;27.23;;;13.93;;
4414;SDS011;2220;42.670;23.398;2022-12-18T12:03:45;22.52;;;11.90;;
4414;SDS011;2220;42.670;23.398;2022-12-18T12:26:16;8.73;;;6.18;;
4414;SDS011;2220;42.670;23.398;2022-12-18T12:39:36;34.20;;;16.38;;
4414;SDS011;2220;42.670;23.398;2022-12-18T12:42:06;20.75;;;11.50;;
4414;SDS011;2220;42.670;23.398;2022-12-18T12:45:05;18.88;;;9.93;;
4414;SDS011;2220;42.670;23.398;2022-12-18T12:47:39;30.42;;;14.82;;
4414;SDS011;2220;42.670;23.398;2022-12-18T12:50:12;30.38;;;13.07;;
4414;SDS011;2220;42.670;23.398;2022-12-18T12:52:45;32.45;;;14.73;;
4414;SDS011;2220;42.670;23.398;2022-12-18T12:55:18;30.02;;;13.90;;
4414;SDS011;2220;42.670;23.398;2022-12-18T12:57:59;30.00;;;14.13;;
4414;SDS011;2220;42.670;23.398;2022-12-18T13:00:36;31.13;;;13.82;;
4414;SDS011;2220;42.670;23.398;2022-12-18T13:03:15;18.00;;;9.98;;
4414;SDS011;2220;42.670;23.398;2022-12-18T13:06:03;23.33;;;10.65;;
4414;SDS011;2220;42.670;23.398;2022-12-18T13:08:54;22.40;;;9.55;;
4414;SDS011;2220;42.670;23.398;2022-12-18T13:11:54;27.65;;;13.35;;
4414;SDS011;2220;42.670;23.398;2022-12-18T13:14:39;26.48;;;13.60;;
4414;SDS011;2220;42.670;23.398;2022-12-18T13:17:15;36.78;;;15.48;;
4414;SDS011;2220;42.670;23.398;2022-12-18T13:19:47;20.73;;;10.02;;
4414;SDS011;2220;42.670;23.398;2022-12-18T13:22:25;28.85;;;14.65;;
4414;SDS011;2220;42.670;23.398;2022-12-18T13:24:56;27.90;;;13.18;;
4414;SDS011;2220;42.670;23.398;2022-12-18T13:41:04;16.50;;;7.55;;
4414;SDS011;2220;42.670;23.398;2022-12-18T13:43:48;28.25;;;14.18;;
4414;SDS011;2220;42.670;23.398;2022-12-18T13:48:59;16.35;;;8.48;;
4414;SDS011;2220;42.670;23.398;2022-12-18T13:51:31;31.48;;;14.30;;
4414;SDS011;2220;42.670;23.398;2022-12-18T13:54:02;12.57;;;5.43;;
4414;SDS011;2220;42.670;23.398;2022-12-18T13:56:43;18.25;;;8.45;;
4414;SDS011;2220;42.670;23.398;2022-12-18T14:01:47;22.40;;;10.75;;
4414;SDS011;2220;42.670;23.398;2022-12-18T14:09:31;26.60;;;13.13;;
4414;SDS011;2220;42.670;23.398;2022-12-18T14:12:00;14.20;;;8.00;;
4414;SDS011;2220;42.670;23.398;2022-12-18T14:14:47;19.45;;;9.85;;
4414;SDS011;2220;42.670;23.398;2022-12-18T14:17:15;22.58;;;11.80;;
4414;SDS011;2220;42.670;23.398;2022-12-18T14:19:42;23.30;;;9.57;;
4414;SDS011;2220;42.670;23.398;2022-12-18T14:22:13;21.83;;;7.53;;
4414;SDS011;2220;42.670;23.398;2022-12-18T14:24:41;16.65;;;7.88;;
4414;SDS011;2220;42.670;23.398;2022-12-18T14:27:19;22.95;;;12.38;;
4414;SDS011;2220;42.670;23.398;2022-12-18T14:29:47;23.60;;;12.07;;
4414;SDS011;2220;42.670;23.398;2022-12-18T14:34:39;28.92;;;12.48;;
4414;SDS011;2220;42.670;23.398;2022-12-18T14:37:06;23.45;;;11.35;;
4414;SDS011;2220;42.670;23.398;2022-12-18T14:39:35;16.42;;;7.72;;
4414;SDS011;2220;42.670;23.398;2022-12-18T14:42:00;23.42;;;12.82;;
4414;SDS011;2220;42.670;23.398;2022-12-18T14:44:26;19.17;;;8.23;;
4414;SDS011;2220;42.670;23.398;2022-12-18T14:46:51;18.55;;;8.95;;
4414;SDS011;2220;42.670;23.398;2022-12-18T14:49:29;27.55;;;11.52;;
4414;SDS011;2220;42.670;23.398;2022-12-18T14:51:58;23.45;;;12.57;;
4414;SDS011;2220;42.670;23.398;2022-12-18T14:54:25;15.52;;;6.82;;
4414;SDS011;2220;42.670;23.398;2022-12-18T14:59:36;15.88;;;8.60;;
4414;SDS011;2220;42.670;23.398;2022-12-18T15:02:15;30.80;;;14.43;;
4414;SDS011;2220;42.670;23.398;2022-12-18T15:05:00;22.65;;;10.60;;
4414;SDS011;2220;42.670;23.398;2022-12-18T15:07:38;29.88;;;14.15;;
4414;SDS011;2220;42.670;23.398;2022-12-18T15:10:19;76.10;;;35.17;;
4414;SDS011;2220;42.670;23.398;2022-12-18T15:12:49;32.63;;;14.38;;
4414;SDS011;2220;42.670;23.398;2022-12-18T15:18:03;29.38;;;13.48;;
4414;SDS011;2220;42.670;23.398;2022-12-18T15:20:39;30.13;;;13.85;;
4414;SDS011;2220;42.670;23.398;2022-12-18T15:23:14;28.08;;;13.07;;
4414;SDS011;2220;42.670;23.398;2022-12-18T15:25:41;26.30;;;12.10;;
4414;SDS011;2220;42.670;23.398;2022-12-18T15:28:15;55.92;;;23.10;;
4414;SDS011;2220;42.670;23.398;2022-12-18T15:33:35;27.92;;;12.27;;
4414;SDS011;2220;42.670;23.398;2022-12-18T15:36:03;23.85;;;10.77;;
4414;SDS011;2220;42.670;23.398;2022-12-18T15:38:30;27.27;;;12.55;;
4414;SDS011;2220;42.670;23.398;2022-12-18T15:40:57;21.83;;;9.77;;
4414;SDS011;2220;42.670;23.398;2022-12-18T15:43:23;23.08;;;11.20;;
4414;SDS011;2220;42.670;23.398;2022-12-18T15:46:06;28.35;;;11.45;;
4414;SDS011;2220;42.670;23.398;2022-12-18T15:48:39;20.25;;;10.35;;
4414;SDS011;2220;42.670;23.398;2022-12-18T15:51:16;23.40;;;10.50;;
4414;SDS011;2220;42.670;23.398;2022-12-18T15:53:47;19.35;;;8.55;;
4414;SDS011;2220;42.670;23.398;2022-12-18T15:56:15;23.10;;;9.25;;
4414;SDS011;2220;42.670;23.398;2022-12-18T15:59:00;22.05;;;11.73;;
4414;SDS011;2220;42.670;23.398;2022-12-18T16:01:27;26.58;;;12.38;;
4414;SDS011;2220;42.670;23.398;2022-12-18T16:03:54;24.67;;;11.38;;
4414;SDS011;2220;42.670;23.398;2022-12-18T16:06:20;42.00;;;19.45;;
4414;SDS011;2220;42.670;23.398;2022-12-18T16:08:49;27.42;;;13.07;;
4414;SDS011;2220;42.670;23.398;2022-12-18T16:14:24;19.75;;;7.43;;
4414;SDS011;2220;42.670;23.398;2022-12-18T16:16:52;22.23;;;11.32;;
4414;SDS011;2220;42.670;23.398;2022-12-18T16:19:19;18.10;;;8.38;;
4414;SDS011;2220;42.670;23.398;2022-12-18T16:21:46;15.98;;;7.50;;
4414;SDS011;2220;42.670;23.398;2022-12-18T16:24:14;21.48;;;10.13;;
4414;SDS011;2220;42.670;23.398;2022-12-18T16:26:41;17.95;;;8.23;;
4414;SDS011;2220;42.670;23.398;2022-12-18T16:29:07;23.00;;;8.57;;
4414;SDS011;2220;42.670;23.398;2022-12-18T16:31:33;16.55;;;7.47;;
4414;SDS011;2220;42.670;23.398;2022-12-18T16:36:51;14.95;;;7.60;;
4414;SDS011;2220;42.670;23.398;2022-12-18T16:39:18;15.30;;;7.07;;
4414;SDS011;2220;42.670;23.398;2022-12-18T16:41:43;30.52;;;15.15;;
4414;SDS011;2220;42.670;23.398;2022-12-18T16:44:09;19.30;;;9.70;;
4414;SDS011;2220;42.670;23.398;2022-12-18T16:46:35;25.35;;;8.98;;
4414;SDS011;2220;42.670;23.398;2022-12-18T16:49:01;19.23;;;7.90;;
4414;SDS011;2220;42.670;23.398;2022-12-18T16:51:27;22.38;;;10.93;;
4414;SDS011;2220;42.670;23.398;2022-12-18T16:53:55;25.10;;;8.88;;
4414;SDS011;2220;42.670;23.398;2022-12-18T16:56:27;20.95;;;8.85;;
4414;SDS011;2220;42.670;23.398;2022-12-18T16:58:53;23.45;;;9.75;;
4414;SDS011;2220;42.670;23.398;2022-12-18T17:01:20;16.90;;;7.32;;
4414;SDS011;2220;42.670;23.398;2022-12-18T17:03:52;22.13;;;10.30;;
4414;SDS011;2220;42.670;23.398;2022-12-18T17:06:22;28.27;;;11.60;;
4414;SDS011;2220;42.670;23.398;2022-12-18T17:08:55;17.50;;;10.07;;
4414;SDS011;2220;42.670;23.398;2022-12-18T17:11:22;10.73;;;5.75;;
4414;SDS011;2220;42.670;23.398;2022-12-18T17:13:49;23.52;;;9.90;;
4414;SDS011;2220;42.670;23.398;2022-12-18T17:16:14;31.92;;;12.13;;
4414;SDS011;2220;42.670;23.398;2022-12-18T17:18:41;20.95;;;10.18;;
4414;SDS011;2220;42.670;23.398;2022-12-18T17:21:08;30.10;;;10.57;;